sensor_id;sensor_type;location;lat;lon;timestamp;P1;durP1;ratioP1;P2;durP2;ratioP2
32445;SDS011;18899;50.748;7.102;2024-03-23T00:55:41;40.80;;;15.20;;
32445;SDS011;18899;50.748;7.102;2024-03-23T00:58:07;40.15;;;15.65;;
32445;SDS011;18899;50.748;7.102;2024-03-23T01:00:33;52.58;;;16.17;;
32445;SDS011;18899;50.748;7.102;2024-03-23T01:02:59;39.70;;;15.75;;
32445;SDS011;18899;50.748;7.102;2024-03-23T01:05:24;46.30;;;17.50;;
32445;SDS011;18899;50.748;7.102;2024-03-23T01:07:50;38.25;;;15.23;;
32445;SDS011;18899;50.748;7.102;2024-03-23T01:10:15;42.50;;;15.60;;
32445;SDS011;18899;50.748;7.102;2024-03-23T01:12:41;42.67;;;14.32;;
32445;SDS011;18899;50.748;7.102;2024-03-23T01:15:06;41.22;;;13.57;;
32445;SDS011;18899;50.748;7.102;2024-03-23T01:17:32;39.60;;;13.32;;
32445;SDS011;18899;50.748;7.102;2024-03-23T01:19:58;50.80;;;12.82;;
32445;SDS011;18899;50.748;7.102;2024-03-23T01:22:23;41.20;;;12.20;;
32445;SDS011;18899;50.748;7.102;2024-03-23T01:24:49;34.95;;;10.95;;
32445;SDS011;18899;50.748;7.102;2024-03-23T01:27:14;32.35;;;10.38;;
32445;SDS011;18899;50.748;7.102;2024-03-23T01:29:40;29.38;;;10.35;;
32445;SDS011;18899;50.748;7.102;2024-03-23T01:32:05;29.23;;;9.38;;
32445;SDS011;18899;50.748;7.102;2024-03-23T01:34:32;27.52;;;9.98;;
32445;SDS011;18899;50.748;7.102;2024-03-23T01:36:57;24.27;;;9.70;;
32445;SDS011;18899;50.748;7.102;2024-03-23T01:39:23;35.42;;;10.07;;
32445;SDS011;18899;50.748;7.102;2024-03-23T01:41:49;31.65;;;10.35;;
32445;SDS011;18899;50.748;7.102;2024-03-23T01:44:14;33.65;;;10.10;;
32445;SDS011;18899;50.748;7.102;2024-03-23T01:46:41;35.55;;;10.07;;
32445;SDS011;18899;50.748;7.102;2024-03-23T01:49:07;28.65;;;9.75;;
32445;SDS011;18899;50.748;7.102;2024-03-23T01:51:33;33.72;;;9.65;;
32445;SDS011;18899;50.748;7.102;2024-03-23T01:53:59;32.35;;;9.93;;
32445;SDS011;18899;50.748;7.102;2024-03-23T01:56:27;31.50;;;10.40;;
32445;SDS011;18899;50.748;7.102;2024-03-23T01:59:02;30.58;;;10.73;;
32445;SDS011;18899;50.748;7.102;2024-03-23T02:01:28;32.10;;;11.40;;
32445;SDS011;18899;50.748;7.102;2024-03-23T02:03:55;35.75;;;11.60;;
32445;SDS011;18899;50.748;7.102;2024-03-23T02:06:20;35.42;;;10.48;;
32445;SDS011;18899;50.748;7.102;2024-03-23T02:08:46;31.90;;;10.20;;
32445;SDS011;18899;50.748;7.102;2024-03-23T02:11:12;30.45;;;9.38;;
32445;SDS011;18899;50.748;7.102;2024-03-23T02:13:37;28.75;;;8.65;;
32445;SDS011;18899;50.748;7.102;2024-03-23T02:16:03;32.67;;;10.00;;
32445;SDS011;18899;50.748;7.102;2024-03-23T02:18:30;21.85;;;9.50;;
32445;SDS011;18899;50.748;7.102;2024-03-23T02:20:56;24.33;;;7.80;;
32445;SDS011;18899;50.748;7.102;2024-03-23T02:23:21;17.17;;;7.57;;
32445;SDS011;18899;50.748;7.102;2024-03-23T02:25:47;15.25;;;7.03;;
32445;SDS011;18899;50.748;7.102;2024-03-23T02:28:12;16.45;;;6.95;;
32445;SDS011;18899;50.748;7.102;2024-03-23T02:30:38;18.77;;;7.35;;
32445;SDS011;18899;50.748;7.102;2024-03-23T02:33:03;22.13;;;6.65;;
32445;SDS011;18899;50.748;7.102;2024-03-23T02:35:29;18.50;;;7.18;;
32445;SDS011;18899;50.748;7.102;2024-03-23T02:37:55;23.92;;;6.90;;
32445;SDS011;18899;50.748;7.102;2024-03-23T02:40:22;19.92;;;6.75;;
32445;SDS011;18899;50.748;7.102;2024-03-23T02:42:48;16.05;;;5.40;;
32445;SDS011;18899;50.748;7.102;2024-03-23T02:45:14;15.10;;;5.68;;
32445;SDS011;18899;50.748;7.102;2024-03-23T02:47:39;15.52;;;5.72;;
32445;SDS011;18899;50.748;7.102;2024-03-23T02:50:05;20.08;;;5.75;;
32445;SDS011;18899;50.748;7.102;2024-03-23T02:52:31;17.58;;;6.10;;
32445;SDS011;18899;50.748;7.102;2024-03-23T02:54:57;19.08;;;5.53;;
32445;SDS011;18899;50.748;7.102;2024-03-23T02:57:22;19.58;;;5.72;;
32445;SDS011;18899;50.748;7.102;2024-03-23T02:59:48;16.02;;;4.82;;
32445;SDS011;18899;50.748;7.102;2024-03-23T03:02:14;16.25;;;5.03;;
32445;SDS011;18899;50.748;7.102;2024-03-23T03:04:41;12.63;;;4.43;;
32445;SDS011;18899;50.748;7.102;2024-03-23T03:07:06;14.95;;;4.70;;
32445;SDS011;18899;50.748;7.102;2024-03-23T03:09:32;15.85;;;4.93;;
32445;SDS011;18899;50.748;7.102;2024-03-23T03:11:58;20.80;;;5.28;;
32445;SDS011;18899;50.748;7.102;2024-03-23T03:14:23;19.58;;;5.03;;
32445;SDS011;18899;50.748;7.102;2024-03-23T03:16:49;15.25;;;4.95;;
32445;SDS011;18899;50.748;7.102;2024-03-23T03:19:14;9.55;;;4.00;;
32445;SDS011;18899;50.748;7.102;2024-03-23T03:21:41;13.75;;;3.58;;
32445;SDS011;18899;50.748;7.102;2024-03-23T03:24:07;11.60;;;3.55;;
32445;SDS011;18899;50.748;7.102;2024-03-23T03:26:32;11.20;;;3.00;;
32445;SDS011;18899;50.748;7.102;2024-03-23T03:28:58;12.88;;;3.30;;
32445;SDS011;18899;50.748;7.102;2024-03-23T03:31:23;15.77;;;4.13;;
32445;SDS011;18899;50.748;7.102;2024-03-23T03:33:49;12.32;;;2.50;;
32445;SDS011;18899;50.748;7.102;2024-03-23T03:36:16;16.17;;;2.55;;
32445;SDS011;18899;50.748;7.102;2024-03-23T03:38:41;13.23;;;2.70;;
32445;SDS011;18899;50.748;7.102;2024-03-23T03:41:07;19.30;;;3.00;;
32445;SDS011;18899;50.748;7.102;2024-03-23T03:43:32;21.42;;;2.75;;
32445;SDS011;18899;50.748;7.102;2024-03-23T03:45:58;18.00;;;2.40;;
32445;SDS011;18899;50.748;7.102;2024-03-23T03:48:25;25.23;;;3.15;;
32445;SDS011;18899;50.748;7.102;2024-03-23T03:50:51;14.55;;;2.75;;
32445;SDS011;18899;50.748;7.102;2024-03-23T03:53:17;10.65;;;3.22;;
32445;SDS011;18899;50.748;7.102;2024-03-23T03:55:43;17.63;;;2.78;;
32445;SDS011;18899;50.748;7.102;2024-03-23T03:58:08;16.55;;;2.60;;
32445;SDS011;18899;50.748;7.102;2024-03-23T04:00:34;21.65;;;3.00;;
32445;SDS011;18899;50.748;7.102;2024-03-23T04:03:00;20.25;;;3.40;;
32445;SDS011;18899;50.748;7.102;2024-03-23T04:05:26;20.55;;;3.53;;
32445;SDS011;18899;50.748;7.102;2024-03-23T04:07:51;20.05;;;2.78;;
32445;SDS011;18899;50.748;7.102;2024-03-23T04:10:17;11.60;;;2.58;;
32445;SDS011;18899;50.748;7.102;2024-03-23T04:12:43;20.13;;;3.25;;
32445;SDS011;18899;50.748;7.102;2024-03-23T04:15:09;17.20;;;3.53;;
32445;SDS011;18899;50.748;7.102;2024-03-23T04:17:35;17.65;;;3.30;;
32445;SDS011;18899;50.748;7.102;2024-03-23T04:20:01;26.45;;;3.25;;
32445;SDS011;18899;50.748;7.102;2024-03-23T04:22:28;17.35;;;2.95;;
32445;SDS011;18899;50.748;7.102;2024-03-23T04:24:54;15.63;;;3.20;;
32445;SDS011;18899;50.748;7.102;2024-03-23T04:27:20;17.20;;;3.40;;
32445;SDS011;18899;50.748;7.102;2024-03-23T04:29:51;18.08;;;3.47;;
32445;SDS011;18899;50.748;7.102;2024-03-23T04:32:20;16.38;;;3.40;;
32445;SDS011;18899;50.748;7.102;2024-03-23T04:34:46;13.07;;;2.85;;
32445;SDS011;18899;50.748;7.102;2024-03-23T04:37:11;18.48;;;3.25;;
32445;SDS011;18899;50.748;7.102;2024-03-23T04:39:37;19.45;;;3.40;;
32445;SDS011;18899;50.748;7.102;2024-03-23T04:42:03;25.40;;;3.50;;
32445;SDS011;18899;50.748;7.102;2024-03-23T04:44:29;14.57;;;3.20;;
32445;SDS011;18899;50.748;7.102;2024-03-23T04:46:55;32.10;;;3.60;;
32445;SDS011;18899;50.748;7.102;2024-03-23T04:49:21;20.65;;;3.00;;
32445;SDS011;18899;50.748;7.102;2024-03-23T04:51:47;14.48;;;3.20;;
32445;SDS011;18899;50.748;7.102;2024-03-23T04:54:12;14.10;;;3.35;;
32445;SDS011;18899;50.748;7.102;2024-03-23T04:56:38;23.45;;;3.08;;
32445;SDS011;18899;50.748;7.102;2024-03-23T04:59:03;16.77;;;3.17;;
32445;SDS011;18899;50.748;7.102;2024-03-23T05:01:30;13.40;;;3.08;;
32445;SDS011;18899;50.748;7.102;2024-03-23T05:03:56;15.07;;;2.85;;
32445;SDS011;18899;50.748;7.102;2024-03-23T05:06:22;23.80;;;3.85;;
32445;SDS011;18899;50.748;7.102;2024-03-23T05:08:48;20.38;;;3.05;;
32445;SDS011;18899;50.748;7.102;2024-03-23T05:11:14;19.77;;;3.58;;
32445;SDS011;18899;50.748;7.102;2024-03-23T05:13:40;15.50;;;2.75;;
32445;SDS011;18899;50.748;7.102;2024-03-23T05:16:06;21.20;;;3.40;;
32445;SDS011;18899;50.748;7.102;2024-03-23T05:18:32;29.70;;;3.08;;
32445;SDS011;18899;50.748;7.102;2024-03-23T05:20:57;24.92;;;2.92;;
32445;SDS011;18899;50.748;7.102;2024-03-23T05:23:24;13.20;;;2.42;;
32445;SDS011;18899;50.748;7.102;2024-03-23T05:25:50;16.67;;;2.58;;
32445;SDS011;18899;50.748;7.102;2024-03-23T05:28:16;13.32;;;2.67;;
32445;SDS011;18899;50.748;7.102;2024-03-23T05:30:42;12.32;;;2.63;;
32445;SDS011;18899;50.748;7.102;2024-03-23T05:33:08;12.52;;;2.90;;
32445;SDS011;18899;50.748;7.102;2024-03-23T05:35:33;17.50;;;2.65;;
32445;SDS011;18899;50.748;7.102;2024-03-23T05:37:59;10.82;;;2.28;;
32445;SDS011;18899;50.748;7.102;2024-03-23T05:40:27;15.32;;;2.50;;
32445;SDS011;18899;50.748;7.102;2024-03-23T05:42:53;17.02;;;2.60;;
32445;SDS011;18899;50.748;7.102;2024-03-23T05:45:20;17.10;;;2.65;;
32445;SDS011;18899;50.748;7.102;2024-03-23T05:47:47;17.30;;;2.30;;
32445;SDS011;18899;50.748;7.102;2024-03-23T05:50:13;13.60;;;2.10;;
32445;SDS011;18899;50.748;7.102;2024-03-23T05:52:39;17.25;;;2.63;;
32445;SDS011;18899;50.748;7.102;2024-03-23T05:55:05;14.65;;;2.10;;
32445;SDS011;18899;50.748;7.102;2024-03-23T05:57:31;17.08;;;2.40;;
32445;SDS011;18899;50.748;7.102;2024-03-23T05:59:56;12.80;;;2.22;;
32445;SDS011;18899;50.748;7.102;2024-03-23T06:02:22;13.25;;;2.50;;
32445;SDS011;18899;50.748;7.102;2024-03-23T06:04:48;22.25;;;2.30;;
32445;SDS011;18899;50.748;7.102;2024-03-23T06:07:14;12.40;;;2.30;;
32445;SDS011;18899;50.748;7.102;2024-03-23T06:09:40;18.88;;;2.58;;
32445;SDS011;18899;50.748;7.102;2024-03-23T06:12:06;14.20;;;2.75;;
32445;SDS011;18899;50.748;7.102;2024-03-23T06:14:32;12.32;;;1.98;;
32445;SDS011;18899;50.748;7.102;2024-03-23T06:16:58;19.02;;;2.67;;
32445;SDS011;18899;50.748;7.102;2024-03-23T06:19:24;11.10;;;2.38;;
32445;SDS011;18899;50.748;7.102;2024-03-23T06:21:52;20.15;;;2.95;;
32445;SDS011;18899;50.748;7.102;2024-03-23T06:24:17;24.25;;;2.88;;
32445;SDS011;18899;50.748;7.102;2024-03-23T06:26:43;12.70;;;2.60;;
32445;SDS011;18899;50.748;7.102;2024-03-23T06:29:08;17.35;;;2.70;;
32445;SDS011;18899;50.748;7.102;2024-03-23T06:31:34;24.75;;;3.00;;
32445;SDS011;18899;50.748;7.102;2024-03-23T06:33:59;14.35;;;2.80;;
32445;SDS011;18899;50.748;7.102;2024-03-23T06:36:26;25.83;;;3.08;;
32445;SDS011;18899;50.748;7.102;2024-03-23T06:38:52;23.90;;;3.00;;
32445;SDS011;18899;50.748;7.102;2024-03-23T06:41:17;18.15;;;2.85;;
32445;SDS011;18899;50.748;7.102;2024-03-23T06:43:44;22.02;;;3.28;;
32445;SDS011;18899;50.748;7.102;2024-03-23T06:46:09;15.40;;;2.97;;
32445;SDS011;18899;50.748;7.102;2024-03-23T06:48:35;14.75;;;2.97;;
32445;SDS011;18899;50.748;7.102;2024-03-23T06:51:00;18.15;;;3.25;;
32445;SDS011;18899;50.748;7.102;2024-03-23T06:53:26;16.40;;;3.05;;
32445;SDS011;18899;50.748;7.102;2024-03-23T06:55:52;17.33;;;2.78;;
32445;SDS011;18899;50.748;7.102;2024-03-23T06:58:22;15.60;;;2.58;;
32445;SDS011;18899;50.748;7.102;2024-03-23T07:00:48;13.07;;;2.10;;
32445;SDS011;18899;50.748;7.102;2024-03-23T07:03:14;13.23;;;2.20;;
32445;SDS011;18899;50.748;7.102;2024-03-23T07:05:40;9.35;;;1.90;;
32445;SDS011;18899;50.748;7.102;2024-03-23T07:08:06;14.93;;;2.85;;
32445;SDS011;18899;50.748;7.102;2024-03-23T07:10:32;11.65;;;2.10;;
32445;SDS011;18899;50.748;7.102;2024-03-23T07:12:58;12.00;;;2.20;;
32445;SDS011;18899;50.748;7.102;2024-03-23T07:15:23;11.18;;;2.10;;
32445;SDS011;18899;50.748;7.102;2024-03-23T07:17:49;9.48;;;2.05;;
32445;SDS011;18899;50.748;7.102;2024-03-23T07:20:15;8.15;;;1.90;;
32445;SDS011;18899;50.748;7.102;2024-03-23T07:22:40;14.32;;;2.50;;
32445;SDS011;18899;50.748;7.102;2024-03-23T07:25:06;12.40;;;2.20;;
32445;SDS011;18899;50.748;7.102;2024-03-23T07:27:32;11.52;;;2.30;;
32445;SDS011;18899;50.748;7.102;2024-03-23T07:29:58;8.35;;;2.20;;
32445;SDS011;18899;50.748;7.102;2024-03-23T07:32:25;10.38;;;2.40;;
32445;SDS011;18899;50.748;7.102;2024-03-23T07:34:51;10.48;;;2.22;;
32445;SDS011;18899;50.748;7.102;2024-03-23T07:37:18;9.27;;;2.13;;
32445;SDS011;18899;50.748;7.102;2024-03-23T07:39:43;13.05;;;2.80;;
32445;SDS011;18899;50.748;7.102;2024-03-23T07:42:09;13.85;;;2.92;;
32445;SDS011;18899;50.748;7.102;2024-03-23T07:44:34;16.23;;;2.95;;
32445;SDS011;18899;50.748;7.102;2024-03-23T07:47:02;15.73;;;2.88;;
32445;SDS011;18899;50.748;7.102;2024-03-23T07:49:28;12.82;;;2.65;;
32445;SDS011;18899;50.748;7.102;2024-03-23T07:51:54;11.48;;;3.03;;
32445;SDS011;18899;50.748;7.102;2024-03-23T07:54:19;10.30;;;3.10;;
32445;SDS011;18899;50.748;7.102;2024-03-23T07:56:45;11.73;;;3.13;;
32445;SDS011;18899;50.748;7.102;2024-03-23T07:59:10;13.38;;;3.10;;
32445;SDS011;18899;50.748;7.102;2024-03-23T08:01:36;9.25;;;2.63;;
32445;SDS011;18899;50.748;7.102;2024-03-23T08:04:01;15.45;;;3.35;;
32445;SDS011;18899;50.748;7.102;2024-03-23T08:06:27;14.27;;;3.45;;
32445;SDS011;18899;50.748;7.102;2024-03-23T08:08:54;10.55;;;3.00;;
32445;SDS011;18899;50.748;7.102;2024-03-23T08:11:27;13.98;;;3.60;;
32445;SDS011;18899;50.748;7.102;2024-03-23T08:13:54;10.90;;;3.03;;
32445;SDS011;18899;50.748;7.102;2024-03-23T08:16:20;10.38;;;2.50;;
32445;SDS011;18899;50.748;7.102;2024-03-23T08:18:46;6.78;;;1.70;;
32445;SDS011;18899;50.748;7.102;2024-03-23T08:21:11;9.77;;;2.10;;
32445;SDS011;18899;50.748;7.102;2024-03-23T08:23:37;11.25;;;2.05;;
32445;SDS011;18899;50.748;7.102;2024-03-23T08:26:03;6.28;;;1.33;;
32445;SDS011;18899;50.748;7.102;2024-03-23T08:28:35;9.13;;;1.40;;
32445;SDS011;18899;50.748;7.102;2024-03-23T08:31:02;9.10;;;1.73;;
32445;SDS011;18899;50.748;7.102;2024-03-23T08:33:30;7.57;;;1.50;;
32445;SDS011;18899;50.748;7.102;2024-03-23T08:35:59;6.28;;;1.30;;
32445;SDS011;18899;50.748;7.102;2024-03-23T08:38:26;4.87;;;1.20;;
32445;SDS011;18899;50.748;7.102;2024-03-23T08:41:02;9.13;;;1.33;;
32445;SDS011;18899;50.748;7.102;2024-03-23T08:43:29;7.28;;;1.40;;
32445;SDS011;18899;50.748;7.102;2024-03-23T08:46:12;7.55;;;1.35;;
32445;SDS011;18899;50.748;7.102;2024-03-23T08:48:39;5.70;;;1.33;;
32445;SDS011;18899;50.748;7.102;2024-03-23T08:51:06;5.82;;;1.25;;
32445;SDS011;18899;50.748;7.102;2024-03-23T08:53:33;6.90;;;1.60;;
32445;SDS011;18899;50.748;7.102;2024-03-23T08:55:59;7.63;;;1.63;;
32445;SDS011;18899;50.748;7.102;2024-03-23T08:58:26;8.45;;;2.00;;
32445;SDS011;18899;50.748;7.102;2024-03-23T09:00:53;6.30;;;2.03;;
32445;SDS011;18899;50.748;7.102;2024-03-23T09:03:23;8.48;;;2.42;;
32445;SDS011;18899;50.748;7.102;2024-03-23T09:05:49;11.57;;;2.85;;
32445;SDS011;18899;50.748;7.102;2024-03-23T09:08:15;9.32;;;2.63;;
32445;SDS011;18899;50.748;7.102;2024-03-23T09:10:41;11.70;;;2.80;;
32445;SDS011;18899;50.748;7.102;2024-03-23T09:13:07;10.68;;;3.17;;
32445;SDS011;18899;50.748;7.102;2024-03-23T09:15:34;10.40;;;2.83;;
32445;SDS011;18899;50.748;7.102;2024-03-23T09:18:00;11.10;;;3.50;;
32445;SDS011;18899;50.748;7.102;2024-03-23T09:20:26;13.63;;;4.05;;
32445;SDS011;18899;50.748;7.102;2024-03-23T09:22:52;12.65;;;3.80;;
32445;SDS011;18899;50.748;7.102;2024-03-23T09:25:17;12.00;;;3.47;;
32445;SDS011;18899;50.748;7.102;2024-03-23T09:27:44;9.95;;;3.20;;
32445;SDS011;18899;50.748;7.102;2024-03-23T09:30:13;12.40;;;3.63;;
32445;SDS011;18899;50.748;7.102;2024-03-23T09:32:39;15.43;;;3.40;;
32445;SDS011;18899;50.748;7.102;2024-03-23T09:35:08;11.40;;;3.03;;
32445;SDS011;18899;50.748;7.102;2024-03-23T09:37:35;11.65;;;2.67;;
32445;SDS011;18899;50.748;7.102;2024-03-23T09:40:00;11.93;;;2.80;;
32445;SDS011;18899;50.748;7.102;2024-03-23T09:42:26;12.07;;;2.55;;
32445;SDS011;18899;50.748;7.102;2024-03-23T09:44:52;11.18;;;2.17;;
32445;SDS011;18899;50.748;7.102;2024-03-23T09:47:17;14.80;;;2.90;;
32445;SDS011;18899;50.748;7.102;2024-03-23T09:49:43;11.15;;;2.22;;
32445;SDS011;18899;50.748;7.102;2024-03-23T09:52:09;8.23;;;2.60;;
32445;SDS011;18899;50.748;7.102;2024-03-23T09:54:35;10.45;;;2.03;;
32445;SDS011;18899;50.748;7.102;2024-03-23T09:57:01;10.68;;;2.03;;
32445;SDS011;18899;50.748;7.102;2024-03-23T09:59:26;11.38;;;2.10;;
32445;SDS011;18899;50.748;7.102;2024-03-23T10:01:54;7.80;;;1.90;;
32445;SDS011;18899;50.748;7.102;2024-03-23T10:04:40;11.05;;;2.13;;
32445;SDS011;18899;50.748;7.102;2024-03-23T10:07:17;11.25;;;2.30;;
32445;SDS011;18899;50.748;7.102;2024-03-23T10:09:44;8.88;;;2.38;;
32445;SDS011;18899;50.748;7.102;2024-03-23T10:12:10;9.57;;;2.00;;
32445;SDS011;18899;50.748;7.102;2024-03-23T10:14:40;10.60;;;2.53;;
32445;SDS011;18899;50.748;7.102;2024-03-23T10:19:45;7.95;;;1.95;;
32445;SDS011;18899;50.748;7.102;2024-03-23T10:22:17;16.85;;;2.13;;
32445;SDS011;18899;50.748;7.102;2024-03-23T10:24:47;10.63;;;1.95;;
32445;SDS011;18899;50.748;7.102;2024-03-23T10:27:17;13.00;;;2.10;;
32445;SDS011;18899;50.748;7.102;2024-03-23T10:32:14;7.95;;;2.03;;
32445;SDS011;18899;50.748;7.102;2024-03-23T10:34:41;12.88;;;1.95;;
32445;SDS011;18899;50.748;7.102;2024-03-23T10:37:07;6.00;;;1.63;;
32445;SDS011;18899;50.748;7.102;2024-03-23T10:39:34;6.35;;;1.17;;
32445;SDS011;18899;50.748;7.102;2024-03-23T10:42:10;6.82;;;1.25;;
32445;SDS011;18899;50.748;7.102;2024-03-23T10:44:36;4.53;;;0.90;;
32445;SDS011;18899;50.748;7.102;2024-03-23T10:47:02;7.57;;;0.90;;
32445;SDS011;18899;50.748;7.102;2024-03-23T10:51:57;1.90;;;0.65;;
32445;SDS011;18899;50.748;7.102;2024-03-23T10:54:24;2.97;;;0.57;;
32445;SDS011;18899;50.748;7.102;2024-03-23T10:56:52;2.08;;;0.68;;
32445;SDS011;18899;50.748;7.102;2024-03-23T10:59:22;2.15;;;0.50;;
32445;SDS011;18899;50.748;7.102;2024-03-23T11:01:56;2.15;;;0.57;;
32445;SDS011;18899;50.748;7.102;2024-03-23T11:04:32;5.20;;;0.80;;
32445;SDS011;18899;50.748;7.102;2024-03-23T11:06:58;3.22;;;0.60;;
32445;SDS011;18899;50.748;7.102;2024-03-23T11:09:40;3.55;;;0.70;;
32445;SDS011;18899;50.748;7.102;2024-03-23T11:14:47;3.30;;;0.80;;
32445;SDS011;18899;50.748;7.102;2024-03-23T11:17:22;1.73;;;0.70;;
32445;SDS011;18899;50.748;7.102;2024-03-23T11:20:09;9.88;;;1.10;;
32445;SDS011;18899;50.748;7.102;2024-03-23T11:27:45;6.95;;;1.50;;
32445;SDS011;18899;50.748;7.102;2024-03-23T11:30:15;8.13;;;2.03;;
32445;SDS011;18899;50.748;7.102;2024-03-23T11:32:46;6.10;;;2.03;;
32445;SDS011;18899;50.748;7.102;2024-03-23T11:38:11;4.32;;;1.58;;
32445;SDS011;18899;50.748;7.102;2024-03-23T11:40:41;5.43;;;1.27;;
32445;SDS011;18899;50.748;7.102;2024-03-23T11:43:09;8.37;;;1.10;;
32445;SDS011;18899;50.748;7.102;2024-03-23T11:45:42;4.22;;;1.13;;
32445;SDS011;18899;50.748;7.102;2024-03-23T11:48:09;3.28;;;1.08;;
32445;SDS011;18899;50.748;7.102;2024-03-23T11:50:37;6.25;;;1.00;;
32445;SDS011;18899;50.748;7.102;2024-03-23T11:53:18;8.85;;;1.67;;
32445;SDS011;18899;50.748;7.102;2024-03-23T11:58:21;9.20;;;1.50;;
32445;SDS011;18899;50.748;7.102;2024-03-23T12:03:24;11.68;;;2.13;;
32445;SDS011;18899;50.748;7.102;2024-03-23T12:05:51;12.30;;;2.78;;
32445;SDS011;18899;50.748;7.102;2024-03-23T12:08:24;8.07;;;2.45;;
32445;SDS011;18899;50.748;7.102;2024-03-23T12:11:16;9.52;;;2.60;;
32445;SDS011;18899;50.748;7.102;2024-03-23T12:13:43;11.65;;;2.45;;
32445;SDS011;18899;50.748;7.102;2024-03-23T12:16:12;8.25;;;2.17;;
32445;SDS011;18899;50.748;7.102;2024-03-23T12:18:39;10.70;;;2.25;;
32445;SDS011;18899;50.748;7.102;2024-03-23T12:21:06;10.68;;;2.28;;
32445;SDS011;18899;50.748;7.102;2024-03-23T12:23:32;7.05;;;2.28;;
32445;SDS011;18899;50.748;7.102;2024-03-23T12:25:58;7.68;;;2.53;;
32445;SDS011;18899;50.748;7.102;2024-03-23T12:28:23;7.80;;;2.67;;
32445;SDS011;18899;50.748;7.102;2024-03-23T12:30:50;8.00;;;2.50;;
32445;SDS011;18899;50.748;7.102;2024-03-23T12:33:17;9.70;;;2.92;;
32445;SDS011;18899;50.748;7.102;2024-03-23T12:35:42;11.98;;;2.88;;
32445;SDS011;18899;50.748;7.102;2024-03-23T12:38:08;9.63;;;2.70;;
32445;SDS011;18899;50.748;7.102;2024-03-23T12:40:33;8.25;;;2.10;;
32445;SDS011;18899;50.748;7.102;2024-03-23T12:42:59;11.45;;;2.92;;
32445;SDS011;18899;50.748;7.102;2024-03-23T12:45:24;7.32;;;2.92;;
32445;SDS011;18899;50.748;7.102;2024-03-23T12:47:50;10.57;;;2.17;;
32445;SDS011;18899;50.748;7.102;2024-03-23T12:50:18;2.88;;;0.90;;
32445;SDS011;18899;50.748;7.102;2024-03-23T12:52:44;5.05;;;1.08;;
32445;SDS011;18899;50.748;7.102;2024-03-23T12:55:09;2.35;;;0.80;;
32445;SDS011;18899;50.748;7.102;2024-03-23T12:57:35;8.27;;;0.80;;
32445;SDS011;18899;50.748;7.102;2024-03-23T13:00:01;5.15;;;0.88;;
32445;SDS011;18899;50.748;7.102;2024-03-23T13:02:28;2.20;;;0.90;;
32445;SDS011;18899;50.748;7.102;2024-03-23T13:04:54;4.32;;;1.05;;
32445;SDS011;18899;50.748;7.102;2024-03-23T13:07:21;6.30;;;0.88;;
32445;SDS011;18899;50.748;7.102;2024-03-23T13:09:49;5.43;;;0.70;;
32445;SDS011;18899;50.748;7.102;2024-03-23T13:12:16;5.45;;;0.80;;
32445;SDS011;18899;50.748;7.102;2024-03-23T13:14:43;3.03;;;0.68;;
32445;SDS011;18899;50.748;7.102;2024-03-23T13:17:09;5.28;;;1.10;;
32445;SDS011;18899;50.748;7.102;2024-03-23T13:19:35;2.55;;;0.70;;
32445;SDS011;18899;50.748;7.102;2024-03-23T13:22:00;5.07;;;1.30;;
32445;SDS011;18899;50.748;7.102;2024-03-23T13:24:26;3.70;;;1.38;;
32445;SDS011;18899;50.748;7.102;2024-03-23T13:26:52;4.88;;;0.90;;
32445;SDS011;18899;50.748;7.102;2024-03-23T13:29:19;2.85;;;0.90;;
32445;SDS011;18899;50.748;7.102;2024-03-23T13:31:45;2.35;;;0.70;;
32445;SDS011;18899;50.748;7.102;2024-03-23T13:34:11;3.15;;;0.70;;
32445;SDS011;18899;50.748;7.102;2024-03-23T13:36:39;2.63;;;0.73;;
32445;SDS011;18899;50.748;7.102;2024-03-23T13:39:08;3.33;;;0.80;;
32445;SDS011;18899;50.748;7.102;2024-03-23T13:41:40;5.22;;;0.75;;
32445;SDS011;18899;50.748;7.102;2024-03-23T13:44:10;2.67;;;0.80;;
32445;SDS011;18899;50.748;7.102;2024-03-23T13:46:40;6.85;;;1.13;;
32445;SDS011;18899;50.748;7.102;2024-03-23T13:49:26;3.35;;;0.80;;
32445;SDS011;18899;50.748;7.102;2024-03-23T13:51:56;4.80;;;0.90;;
32445;SDS011;18899;50.748;7.102;2024-03-23T13:54:25;7.35;;;1.30;;
32445;SDS011;18899;50.748;7.102;2024-03-23T13:56:51;6.97;;;1.30;;
32445;SDS011;18899;50.748;7.102;2024-03-23T13:59:17;3.60;;;1.02;;
32445;SDS011;18899;50.748;7.102;2024-03-23T14:01:46;3.45;;;1.02;;
32445;SDS011;18899;50.748;7.102;2024-03-23T14:04:12;6.32;;;1.38;;
32445;SDS011;18899;50.748;7.102;2024-03-23T14:06:38;1.67;;;0.90;;
32445;SDS011;18899;50.748;7.102;2024-03-23T14:09:04;6.57;;;1.08;;
32445;SDS011;18899;50.748;7.102;2024-03-23T14:11:30;5.05;;;1.25;;
32445;SDS011;18899;50.748;7.102;2024-03-23T14:13:56;9.68;;;1.50;;
32445;SDS011;18899;50.748;7.102;2024-03-23T14:16:21;8.20;;;1.63;;
32445;SDS011;18899;50.748;7.102;2024-03-23T14:18:47;6.10;;;1.30;;
32445;SDS011;18899;50.748;7.102;2024-03-23T14:21:12;11.85;;;1.65;;
32445;SDS011;18899;50.748;7.102;2024-03-23T14:23:38;12.13;;;1.83;;
32445;SDS011;18899;50.748;7.102;2024-03-23T14:26:06;6.32;;;1.40;;
32445;SDS011;18899;50.748;7.102;2024-03-23T14:28:31;6.88;;;1.55;;
32445;SDS011;18899;50.748;7.102;2024-03-23T14:30:57;6.57;;;1.58;;
32445;SDS011;18899;50.748;7.102;2024-03-23T14:33:23;3.90;;;1.33;;
32445;SDS011;18899;50.748;7.102;2024-03-23T14:35:55;6.53;;;1.20;;
32445;SDS011;18899;50.748;7.102;2024-03-23T14:38:24;8.02;;;1.00;;
32445;SDS011;18899;50.748;7.102;2024-03-23T14:40:50;7.78;;;1.33;;
32445;SDS011;18899;50.748;7.102;2024-03-23T14:43:19;3.10;;;1.15;;
32445;SDS011;18899;50.748;7.102;2024-03-23T14:46:05;5.50;;;1.35;;
32445;SDS011;18899;50.748;7.102;2024-03-23T14:48:35;4.18;;;1.05;;
32445;SDS011;18899;50.748;7.102;2024-03-23T14:51:01;4.85;;;0.90;;
32445;SDS011;18899;50.748;7.102;2024-03-23T14:53:30;2.45;;;1.00;;
32445;SDS011;18899;50.748;7.102;2024-03-23T14:55:57;8.45;;;1.50;;
32445;SDS011;18899;50.748;7.102;2024-03-23T14:58:22;2.00;;;0.70;;
32445;SDS011;18899;50.748;7.102;2024-03-23T15:00:49;1.77;;;0.60;;
32445;SDS011;18899;50.748;7.102;2024-03-23T15:03:15;3.03;;;0.80;;
32445;SDS011;18899;50.748;7.102;2024-03-23T15:05:40;4.93;;;1.13;;
32445;SDS011;18899;50.748;7.102;2024-03-23T15:08:06;7.97;;;1.17;;
32445;SDS011;18899;50.748;7.102;2024-03-23T15:10:35;5.40;;;1.02;;
32445;SDS011;18899;50.748;7.102;2024-03-23T15:13:00;3.25;;;1.00;;
32445;SDS011;18899;50.748;7.102;2024-03-23T15:15:26;4.07;;;1.00;;
32445;SDS011;18899;50.748;7.102;2024-03-23T15:17:51;8.50;;;1.52;;
32445;SDS011;18899;50.748;7.102;2024-03-23T15:20:17;4.95;;;1.08;;
32445;SDS011;18899;50.748;7.102;2024-03-23T15:22:43;4.88;;;1.25;;
32445;SDS011;18899;50.748;7.102;2024-03-23T15:25:08;2.90;;;0.90;;
32445;SDS011;18899;50.748;7.102;2024-03-23T15:27:34;5.15;;;1.02;;
32445;SDS011;18899;50.748;7.102;2024-03-23T15:29:59;4.85;;;0.82;;
32445;SDS011;18899;50.748;7.102;2024-03-23T15:32:25;1.70;;;0.77;;
32445;SDS011;18899;50.748;7.102;2024-03-23T15:34:50;2.50;;;0.70;;
32445;SDS011;18899;50.748;7.102;2024-03-23T15:37:16;6.68;;;1.10;;
32445;SDS011;18899;50.748;7.102;2024-03-23T15:39:42;4.90;;;1.25;;
32445;SDS011;18899;50.748;7.102;2024-03-23T15:42:08;3.80;;;0.80;;
32445;SDS011;18899;50.748;7.102;2024-03-23T15:44:35;3.80;;;0.93;;
32445;SDS011;18899;50.748;7.102;2024-03-23T15:47:00;4.18;;;0.60;;
32445;SDS011;18899;50.748;7.102;2024-03-23T15:49:26;3.67;;;0.98;;
32445;SDS011;18899;50.748;7.102;2024-03-23T15:51:51;2.80;;;1.15;;
32445;SDS011;18899;50.748;7.102;2024-03-23T15:54:18;3.58;;;1.15;;